0TX1 – Local Weather Observations

Pecan Plantation

This weather station is operated by a private user located just north of the field. Data is gathered via OpenWeatherMap.org.

Last updated:
2019-03-19 23:26:04(6:26 pm)

Temperature: 67.8 °F

Sunrise / Sunset: 7:33 am / 7:42 pm

Civil Dawn / Dusk: 7:09 am / 8:07 pm

Nearby METARs

KGDJ 192335Z AUTO 14009KT 10SM CLR 21/01 A3017 RMK AO2 T02090012

KCPT 192335Z AUTO 16010G18KT 10SM CLR 19/04 A3018 RMK AO2

KFWS 192254Z 16011G16KT 10SM CLR 20/04 A3018

KSEP 192335Z AUTO 16008KT 10SM CLR 20/00 A3017 RMK AO2 T01951001